Aviation Digital Data Service (ADDS)

Output produced by TAFs form (1854 UTC 03 May 2015)
found at http://aviationweather.gov/adds/tafs/
 
KSAF 031758Z 0318/0418 01006KT P6SM FEW120 BKN200 
     FM031900 25010G16KT P6SM FEW070 SCT200 
     FM040000 32009KT P6SM VCSH BKN080 
     FM040300 36007KT P6SM BKN090 
     FM040900 01007KT P6SM FEW090